createdAt,value
2022-12-29T00:01:04.302Z,72.60
2022-12-29T00:03:32.034Z,72.53
2022-12-29T00:06:00.362Z,72.58
2022-12-29T00:11:28.868Z,72.35
2022-12-29T00:14:14.746Z,71.84
2022-12-29T00:16:44.482Z,72.02
2022-12-29T00:19:31.675Z,72.16
2022-12-29T00:25:06.590Z,71.43
2022-12-29T00:27:52.877Z,71.38
2022-12-29T00:30:43.459Z,70.91
2022-12-29T00:33:40.630Z,70.61
2022-12-29T00:36:19.556Z,70.40
2022-12-29T00:39:11.573Z,70.10
2022-12-29T00:44:42.952Z,69.62
2022-12-29T00:47:10.822Z,69.45
2022-12-29T00:49:38.617Z,69.60
2022-12-29T00:52:11.608Z,69.35
2022-12-29T00:54:41.042Z,69.02
2022-12-29T00:59:56.128Z,69.32
2022-12-29T01:02:23.660Z,69.21
2022-12-29T01:04:51.214Z,69.13
2022-12-29T01:07:18.670Z,69.12
2022-12-29T01:10:04.523Z,68.91
2022-12-29T01:12:46.286Z,69.15
2022-12-29T01:15:15.814Z,69.10
2022-12-29T01:17:43.897Z,68.91
2022-12-29T01:20:12.661Z,69.13
2022-12-29T01:22:40.768Z,68.66
2022-12-29T01:25:09.057Z,68.08
2022-12-29T01:27:40.832Z,68.21
2022-12-29T01:32:54.412Z,67.50
2022-12-29T01:35:21.852Z,68.12
2022-12-29T01:37:49.295Z,67.85
2022-12-29T01:40:17.137Z,67.73
2022-12-29T01:42:45.750Z,67.89
2022-12-29T01:45:15.217Z,67.77
2022-12-29T01:47:50.387Z,67.78
2022-12-29T01:50:26.100Z,67.88
2022-12-29T01:53:29.561Z,67.64
2022-12-29T01:56:04.752Z,67.68
2022-12-29T01:58:37.511Z,67.85
2022-12-29T02:03:52.240Z,67.96
2022-12-29T02:06:24.457Z,67.44
2022-12-29T02:09:11.271Z,67.27
2022-12-29T02:11:39.940Z,67.80
2022-12-29T02:14:12.631Z,67.71
2022-12-29T02:16:49.544Z,67.84
2022-12-29T02:19:35.938Z,67.81
2022-12-29T02:22:15.497Z,67.70
2022-12-29T02:25:16.718Z,67.95
2022-12-29T02:27:54.559Z,67.48
2022-12-29T02:30:46.993Z,67.86
2022-12-29T02:33:29.682Z,67.97
2022-12-29T02:36:41.721Z,68.45
2022-12-29T02:39:33.076Z,68.19
2022-12-29T02:42:04.222Z,68.43
2022-12-29T02:44:38.144Z,68.45
2022-12-29T02:53:13.502Z,68.59
2022-12-29T02:55:52.908Z,68.36
2022-12-29T03:01:08.218Z,68.69
2022-12-29T03:03:41.631Z,68.87
2022-12-29T03:06:34.157Z,68.45
2022-12-29T03:09:21.953Z,68.04
2022-12-29T03:12:09.423Z,67.58
2022-12-29T03:18:14.719Z,67.26
2022-12-29T03:20:56.059Z,66.61
2022-12-29T03:23:25.918Z,66.79
2022-12-29T03:25:58.633Z,65.67
2022-12-29T03:28:37.711Z,66.38
2022-12-29T03:33:56.781Z,65.34
2022-12-29T03:36:56.591Z,64.62
2022-12-29T03:39:25.849Z,64.09
2022-12-29T03:42:01.183Z,64.08
2022-12-29T03:44:38.183Z,63.70
2022-12-29T03:47:07.784Z,63.19
2022-12-29T03:49:35.474Z,63.10
2022-12-29T03:54:48.500Z,62.98
2022-12-29T03:57:15.926Z,62.29
2022-12-29T03:59:59.479Z,62.34
2022-12-29T04:02:31.254Z,61.95
2022-12-29T04:04:59.151Z,62.36
2022-12-29T04:07:26.673Z,62.05
2022-12-29T04:09:57.756Z,61.61
2022-12-29T04:12:27.942Z,61.74
2022-12-29T04:14:55.576Z,60.89
2022-12-29T04:17:23.299Z,60.49
2022-12-29T04:20:13.612Z,60.02
2022-12-29T04:22:42.068Z,59.85
2022-12-29T04:25:09.924Z,59.42
2022-12-29T04:27:38.124Z,57.30
2022-12-29T04:30:24.332Z,59.10
2022-12-29T04:33:02.857Z,58.29
2022-12-29T04:35:30.530Z,58.08
2022-12-29T04:37:58.466Z,58.62
2022-12-29T04:40:26.674Z,58.24
2022-12-29T04:42:54.550Z,57.01
2022-12-29T04:45:23.964Z,57.22
2022-12-29T04:48:09.532Z,56.99
2022-12-29T05:02:11.621Z,56.55
2022-12-29T05:04:40.165Z,56.26
2022-12-29T05:09:55.552Z,55.66
2022-12-29T05:12:24.054Z,55.75
2022-12-29T05:17:47.958Z,53.31
2022-12-29T05:23:05.412Z,54.31
2022-12-29T05:28:23.306Z,54.60
2022-12-29T05:31:09.336Z,54.45
2022-12-29T05:33:41.436Z,55.33
2022-12-29T05:36:15.468Z,55.32
2022-12-29T05:41:36.586Z,56.01
2022-12-29T05:47:27.169Z,56.30
2022-12-29T05:50:16.483Z,56.92
2022-12-29T05:53:29.481Z,56.59
2022-12-29T05:56:02.163Z,55.50
2022-12-29T05:58:31.176Z,55.80
2022-12-29T06:01:00.775Z,55.67
2022-12-29T06:03:33.220Z,55.09
2022-12-29T06:11:31.819Z,53.72
2022-12-29T06:14:13.907Z,54.60
2022-12-29T06:16:57.617Z,54.32
2022-12-29T06:19:30.753Z,53.78
2022-12-29T06:21:59.695Z,54.52
2022-12-29T06:24:31.403Z,53.96
2022-12-29T06:27:12.154Z,53.85
2022-12-29T06:29:48.707Z,54.17
2022-12-29T06:32:16.816Z,54.06
2022-12-29T06:34:52.667Z,53.84
2022-12-29T06:37:24.250Z,54.49
2022-12-29T06:39:53.563Z,54.10
2022-12-29T06:42:27.899Z,53.98
2022-12-29T06:45:35.782Z,53.37
2022-12-29T06:48:04.872Z,53.15
2022-12-29T06:59:06.287Z,52.59
2022-12-29T07:04:24.224Z,53.43
2022-12-29T07:06:58.646Z,54.35
2022-12-29T07:18:07.052Z,54.08
2022-12-29T07:20:36.439Z,53.93
2022-12-29T07:23:15.217Z,53.93
2022-12-29T07:28:35.440Z,53.86
2022-12-29T07:31:28.123Z,53.78
2022-12-29T07:37:23.354Z,54.89
2022-12-29T07:47:33.277Z,55.29
2022-12-29T07:52:50.457Z,55.63
2022-12-29T08:00:47.798Z,55.93
2022-12-29T08:03:16.674Z,55.54
2022-12-29T08:05:45.073Z,55.81
2022-12-29T08:11:07.793Z,55.68
2022-12-29T08:13:36.077Z,55.50
2022-12-29T08:27:17.951Z,55.64
2022-12-29T08:30:12.869Z,55.59
2022-12-29T08:32:55.336Z,55.19
2022-12-29T08:35:31.334Z,54.59
2022-12-29T08:38:13.110Z,54.87
2022-12-29T08:40:41.169Z,55.03
2022-12-29T08:43:08.964Z,54.48
2022-12-29T08:45:38.306Z,54.74
2022-12-29T08:48:13.342Z,54.23
2022-12-29T08:54:11.485Z,54.13
2022-12-29T08:56:57.904Z,53.57
2022-12-29T09:06:45.794Z,53.99
2022-12-29T09:09:32.710Z,54.03
2022-12-29T09:12:12.217Z,53.28
2022-12-29T09:14:43.283Z,54.33
2022-12-29T09:17:40.174Z,53.91
2022-12-29T09:20:10.228Z,53.81
2022-12-29T09:22:43.186Z,53.87
2022-12-29T09:25:12.171Z,54.08
2022-12-29T09:27:41.157Z,53.76
2022-12-29T09:30:13.663Z,53.94
2022-12-29T09:32:45.887Z,53.98
2022-12-29T09:35:18.697Z,54.20
2022-12-29T09:37:47.619Z,53.40
2022-12-29T09:43:46.342Z,54.32
2022-12-29T09:46:30.224Z,54.67
2022-12-29T09:49:41.115Z,54.33
2022-12-29T09:52:22.565Z,54.96
2022-12-29T09:57:58.430Z,54.43
2022-12-29T10:00:42.216Z,54.43
2022-12-29T10:03:19.689Z,53.64
2022-12-29T10:06:05.256Z,54.05
2022-12-29T10:08:52.471Z,53.24
2022-12-29T10:11:33.604Z,53.14
2022-12-29T10:17:59.870Z,52.55
2022-12-29T10:21:16.311Z,51.97
2022-12-29T10:26:41.847Z,52.81
2022-12-29T10:29:50.552Z,51.89
2022-12-29T10:32:43.347Z,52.62
2022-12-29T10:35:24.237Z,52.03
2022-12-29T10:38:27.949Z,52.16
2022-12-29T10:41:32.218Z,52.02
2022-12-29T10:44:02.314Z,51.88
2022-12-29T10:46:43.921Z,51.74
2022-12-29T10:49:22.287Z,51.33
2022-12-29T10:51:53.605Z,51.21
2022-12-29T10:54:40.172Z,50.71
2022-12-29T10:57:26.047Z,51.38
2022-12-29T10:59:54.693Z,51.87
2022-12-29T11:02:25.903Z,51.24
2022-12-29T11:11:04.783Z,51.32
2022-12-29T11:13:39.276Z,51.46
2022-12-29T11:16:08.101Z,51.49
2022-12-29T11:18:41.668Z,51.75
2022-12-29T11:21:41.585Z,51.85
2022-12-29T11:24:22.356Z,51.30
2022-12-29T11:26:58.766Z,51.32
2022-12-29T11:29:40.865Z,51.40
2022-12-29T11:32:31.119Z,51.20
2022-12-29T11:35:00.633Z,51.31
2022-12-29T11:37:36.438Z,51.71
2022-12-29T11:40:19.088Z,51.13
2022-12-29T11:42:54.271Z,51.03
2022-12-29T11:45:28.646Z,51.03
2022-12-29T11:48:20.011Z,51.07
2022-12-29T11:51:00.994Z,51.06
2022-12-29T11:53:39.643Z,50.48
2022-12-29T11:56:12.182Z,50.80
2022-12-29T12:02:16.866Z,50.73
2022-12-29T12:04:45.232Z,51.30
2022-12-29T12:07:22.845Z,51.37
2022-12-29T12:10:07.748Z,51.43
2022-12-29T12:16:40.446Z,51.44
2022-12-29T12:20:13.072Z,51.76
2022-12-29T12:22:51.403Z,51.40
2022-12-29T12:25:27.414Z,51.55
2022-12-29T12:28:05.013Z,51.88
2022-12-29T12:30:45.428Z,52.47
2022-12-29T12:33:41.038Z,52.18
2022-12-29T12:36:41.322Z,52.64
2022-12-29T12:39:29.232Z,53.20
2022-12-29T12:42:19.582Z,53.12
2022-12-29T12:44:54.811Z,53.38
2022-12-29T12:47:24.654Z,53.60
2022-12-29T12:50:16.487Z,54.00
2022-12-29T12:53:09.997Z,54.15
2022-12-29T12:55:55.126Z,54.11
2022-12-29T12:58:50.501Z,54.32
2022-12-29T13:01:24.846Z,54.89
2022-12-29T13:07:50.021Z,55.63
2022-12-29T13:11:08.973Z,56.23
2022-12-29T13:14:15.786Z,56.87
2022-12-29T13:17:04.909Z,56.74
2022-12-29T13:19:41.724Z,57.24
2022-12-29T13:22:21.116Z,56.96
2022-12-29T13:25:06.381Z,57.39
2022-12-29T13:27:47.939Z,57.56
2022-12-29T13:30:37.380Z,57.57
2022-12-29T13:33:39.105Z,57.58
2022-12-29T13:36:15.730Z,57.85
2022-12-29T13:38:51.822Z,58.45
2022-12-29T13:41:25.867Z,58.47
2022-12-29T13:43:55.525Z,59.02
2022-12-29T13:46:32.293Z,59.40
2022-12-29T13:49:14.322Z,59.28
2022-12-29T13:51:55.203Z,59.75
2022-12-29T13:54:59.903Z,59.85
2022-12-29T13:58:13.914Z,59.30
2022-12-29T14:00:51.254Z,59.89
2022-12-29T14:03:43.621Z,59.94
2022-12-29T14:09:48.111Z,60.44
2022-12-29T14:12:42.806Z,60.51
2022-12-29T14:15:10.338Z,60.03
2022-12-29T14:17:45.396Z,60.47
2022-12-29T14:20:22.233Z,60.73
2022-12-29T14:23:18.257Z,60.98
2022-12-29T14:25:59.697Z,61.54
2022-12-29T14:28:32.138Z,62.03
2022-12-29T14:31:17.032Z,62.05
2022-12-29T14:34:07.504Z,62.77
2022-12-29T14:36:55.332Z,62.12
2022-12-29T14:39:32.970Z,63.13
2022-12-29T14:42:15.410Z,63.02
2022-12-29T14:44:52.029Z,63.89
2022-12-29T14:47:31.515Z,63.50
2022-12-29T14:50:08.023Z,63.89
2022-12-29T14:53:00.086Z,64.27
2022-12-29T14:55:51.110Z,63.89
2022-12-29T14:58:37.631Z,64.51
2022-12-29T15:01:05.418Z,63.96
2022-12-29T15:03:51.938Z,64.24
2022-12-29T15:06:23.427Z,63.81
2022-12-29T15:09:02.930Z,64.20
2022-12-29T15:11:54.844Z,64.25
2022-12-29T15:14:31.300Z,64.63
2022-12-29T15:16:59.038Z,65.09
2022-12-29T15:19:27.915Z,64.39
2022-12-29T15:21:56.963Z,64.87
2022-12-29T15:24:25.553Z,64.60
2022-12-29T15:26:55.933Z,64.99
2022-12-29T15:29:42.957Z,64.97
2022-12-29T15:32:16.575Z,64.86
2022-12-29T15:34:53.909Z,64.98
2022-12-29T15:37:27.434Z,64.66
2022-12-29T15:39:57.197Z,64.12
2022-12-29T15:42:45.676Z,64.15
2022-12-29T15:45:15.271Z,64.27
2022-12-29T15:47:47.907Z,64.42
2022-12-29T15:50:27.625Z,64.44
2022-12-29T15:52:56.986Z,64.34
2022-12-29T15:55:36.750Z,64.43
2022-12-29T15:58:07.380Z,63.98
2022-12-29T16:00:38.681Z,64.21
2022-12-29T16:03:13.599Z,64.20
2022-12-29T16:05:41.867Z,64.32
2022-12-29T16:08:41.336Z,64.45
2022-12-29T16:11:38.631Z,63.78
2022-12-29T16:14:16.006Z,64.40
2022-12-29T16:16:46.228Z,64.02
2022-12-29T16:19:20.238Z,64.41
2022-12-29T16:24:40.548Z,64.12
2022-12-29T16:30:31.068Z,64.37
2022-12-29T16:33:03.400Z,64.49
2022-12-29T16:35:46.126Z,64.32
2022-12-29T16:38:18.754Z,64.57
2022-12-29T16:40:52.407Z,65.39
2022-12-29T16:43:28.562Z,65.76
2022-12-29T16:46:01.915Z,65.18
2022-12-29T16:48:32.812Z,64.78
2022-12-29T16:51:05.604Z,65.25
2022-12-29T16:53:36.881Z,64.58
2022-12-29T16:56:15.750Z,64.89
2022-12-29T16:58:49.216Z,64.47
2022-12-29T17:01:20.556Z,64.70
2022-12-29T17:03:54.851Z,64.75
2022-12-29T17:06:23.556Z,65.13
2022-12-29T17:08:51.318Z,65.51
2022-12-29T17:11:57.777Z,65.46
2022-12-29T17:14:46.286Z,66.03
2022-12-29T17:17:22.362Z,66.02
2022-12-29T17:19:56.940Z,65.45
2022-12-29T17:22:27.299Z,65.68
2022-12-29T17:24:56.558Z,65.64
2022-12-29T17:27:34.761Z,65.92
2022-12-29T17:30:18.122Z,66.62
2022-12-29T17:32:59.882Z,66.69
2022-12-29T17:35:28.539Z,66.24
2022-12-29T17:37:56.180Z,66.28
2022-12-29T17:40:27.621Z,66.72
2022-12-29T17:42:58.138Z,66.72
2022-12-29T17:45:29.905Z,66.51
2022-12-29T17:48:05.612Z,66.70
2022-12-29T17:50:33.144Z,66.64
2022-12-29T17:53:07.341Z,66.36
2022-12-29T17:55:38.380Z,66.51
2022-12-29T17:58:21.925Z,67.26
2022-12-29T18:01:00.471Z,66.34
2022-12-29T18:03:35.171Z,66.87
2022-12-29T18:06:06.159Z,66.72
2022-12-29T18:08:35.669Z,66.48
2022-12-29T18:11:04.385Z,66.45
2022-12-29T18:16:19.727Z,67.15
2022-12-29T18:18:47.202Z,67.54
2022-12-29T18:21:21.097Z,67.01
2022-12-29T18:23:49.659Z,67.01
2022-12-29T18:26:23.912Z,66.89
2022-12-29T18:28:56.069Z,66.61
2022-12-29T18:31:27.619Z,66.93
2022-12-29T18:33:57.542Z,66.85
2022-12-29T18:36:26.409Z,66.62
2022-12-29T18:38:54.964Z,66.83
2022-12-29T18:41:26.804Z,67.39
2022-12-29T18:43:54.443Z,66.94
2022-12-29T18:46:23.463Z,66.88
2022-12-29T18:48:52.387Z,66.82
2022-12-29T18:51:20.799Z,66.71
2022-12-29T18:53:49.089Z,66.70
2022-12-29T18:59:03.965Z,66.66
2022-12-29T19:01:31.500Z,66.95
2022-12-29T19:04:07.396Z,67.21
2022-12-29T19:06:53.753Z,66.84
2022-12-29T19:09:21.122Z,66.82
2022-12-29T19:11:48.553Z,66.36
2022-12-29T19:14:19.690Z,67.01
2022-12-29T19:16:47.520Z,66.92
2022-12-29T19:19:16.378Z,66.86
2022-12-29T19:21:44.994Z,66.44
2022-12-29T19:24:12.577Z,66.24
2022-12-29T19:26:41.439Z,65.92
2022-12-29T19:29:15.894Z,65.69
2022-12-29T19:31:43.572Z,66.29
2022-12-29T19:34:15.109Z,65.75
2022-12-29T19:36:44.167Z,65.58
2022-12-29T19:39:12.825Z,65.37
2022-12-29T19:41:40.553Z,65.93
2022-12-29T19:44:08.633Z,65.71
2022-12-29T19:46:36.231Z,65.49
2022-12-29T19:49:03.692Z,65.77
2022-12-29T19:51:31.248Z,65.23
2022-12-29T19:53:58.787Z,65.91
2022-12-29T19:56:26.387Z,65.97
2022-12-29T19:58:53.877Z,65.94
2022-12-29T20:01:23.086Z,66.38
2022-12-29T20:03:51.437Z,66.00
2022-12-29T20:06:19.294Z,66.20
2022-12-29T20:11:34.420Z,66.30
2022-12-29T20:14:02.408Z,66.27
2022-12-29T20:16:30.105Z,66.05
2022-12-29T20:18:57.615Z,66.29
2022-12-29T20:21:26.091Z,66.00
2022-12-29T20:23:54.468Z,66.47
2022-12-29T20:26:28.972Z,66.25
2022-12-29T20:28:58.843Z,66.40
2022-12-29T20:31:30.721Z,66.55
2022-12-29T20:33:58.481Z,66.76
2022-12-29T20:36:32.303Z,66.39
2022-12-29T20:39:03.197Z,66.68
2022-12-29T20:41:31.480Z,66.42
2022-12-29T20:43:58.979Z,66.54
2022-12-29T20:46:32.839Z,66.66
2022-12-29T20:49:20.397Z,66.75
2022-12-29T20:52:05.782Z,67.26
2022-12-29T20:54:39.099Z,66.58
2022-12-29T20:57:07.727Z,66.68
2022-12-29T20:59:35.308Z,66.71
2022-12-29T21:02:02.948Z,66.54
2022-12-29T21:04:49.965Z,66.45
2022-12-29T21:07:20.153Z,66.63
2022-12-29T21:09:47.909Z,66.42
2022-12-29T21:12:15.421Z,66.81
2022-12-29T21:14:45.821Z,66.75
2022-12-29T21:19:55.026Z,66.62
2022-12-29T21:22:22.407Z,67.14
2022-12-29T21:24:50.022Z,66.98
2022-12-29T21:27:17.534Z,67.03
2022-12-29T21:29:45.511Z,66.81
2022-12-29T21:32:12.891Z,66.56
2022-12-29T21:34:40.460Z,66.75
2022-12-29T21:37:07.938Z,66.77
2022-12-29T21:39:35.320Z,66.56
2022-12-29T21:42:03.031Z,66.48
2022-12-29T21:44:48.719Z,66.63
2022-12-29T21:47:16.485Z,66.41
2022-12-29T21:49:43.962Z,66.34
2022-12-29T21:52:11.431Z,66.73
2022-12-29T21:54:57.291Z,66.36
2022-12-29T21:57:43.568Z,66.47
2022-12-29T22:00:32.004Z,66.07
2022-12-29T22:03:23.073Z,66.07
2022-12-29T22:06:10.526Z,65.90
2022-12-29T22:08:57.620Z,65.89
2022-12-29T22:11:43.747Z,65.74
2022-12-29T22:14:11.727Z,66.16
2022-12-29T22:16:39.107Z,65.48
2022-12-29T22:19:08.158Z,65.49
2022-12-29T22:21:35.612Z,65.67
2022-12-29T22:24:03.432Z,65.15
2022-12-29T22:26:31.284Z,65.90
2022-12-29T22:28:58.960Z,65.78
2022-12-29T22:31:29.222Z,65.61
2022-12-29T22:36:42.019Z,65.61
2022-12-29T22:39:10.949Z,65.24
2022-12-29T22:41:45.909Z,64.83
2022-12-29T22:44:13.354Z,65.07
2022-12-29T22:46:40.862Z,65.21
2022-12-29T22:49:08.552Z,65.28
2022-12-29T22:51:35.932Z,65.08
2022-12-29T22:54:03.632Z,65.20
2022-12-29T22:56:31.050Z,65.33
2022-12-29T22:58:58.648Z,65.50
2022-12-29T23:01:26.176Z,65.35
2022-12-29T23:04:05.899Z,65.32
2022-12-29T23:06:41.776Z,65.94
2022-12-29T23:09:15.599Z,65.41
2022-12-29T23:11:43.373Z,65.18
2022-12-29T23:14:10.961Z,65.29
2022-12-29T23:16:38.570Z,65.30
2022-12-29T23:19:06.328Z,65.07
2022-12-29T23:21:33.923Z,64.89
2022-12-29T23:24:06.954Z,64.93
2022-12-29T23:26:38.130Z,65.08
2022-12-29T23:29:08.443Z,65.25
2022-12-29T23:31:36.384Z,65.12
2022-12-29T23:34:05.954Z,65.72
2022-12-29T23:36:34.221Z,65.32
2022-12-29T23:39:01.966Z,65.65
2022-12-29T23:41:29.704Z,66.01
2022-12-29T23:43:57.311Z,66.28
2022-12-29T23:46:26.743Z,66.34
2022-12-29T23:48:54.679Z,65.92
2022-12-29T23:51:22.551Z,65.84
2022-12-29T23:53:50.247Z,65.67
2022-12-29T23:56:22.342Z,65.74
2022-12-29T23:58:50.679Z,65.38
